Time;durP1;ratioP1;P1;durP2;ratioP2;P2;SDS_P1;SDS_P2;PMS_P1;PMS_P2;Temp;Humidity;BMP_temperature;BMP_pressure;BME280_temperature;BME280_humidity;BME280_pressure;Samples;Min_cycle;Max_cycle;Signal;HPM_P1;HPM_P2
2021/12/29 00:01:11;;;;;;;5.03;2.35;;;9.90;92.20;;;;;;5094572;28;20129;-71
2021/12/29 00:03:37;;;;;;;2.85;2.42;;;9.90;92.20;;;;;;5094542;28;20047;-71
2021/12/29 00:06:02;;;;;;;3.97;2.20;;;9.90;92.20;;;;;;5095616;28;20450;-71
2021/12/29 00:08:28;;;;;;;5.30;2.88;;;9.90;92.20;;;;;;5094514;28;20028;-71
2021/12/29 00:10:55;;;;;;;5.32;2.72;;;9.90;92.20;;;;;;5094389;28;20046;-71
2021/12/29 00:13:23;;;;;;;3.95;3.30;;;9.80;92.20;;;;;;5094342;28;20020;-72
2021/12/29 00:15:56;;;;;;;5.68;2.67;;;9.90;92.10;;;;;;5095601;28;20134;-71
2021/12/29 00:18:22;;;;;;;4.90;3.20;;;9.90;92.10;;;;;;5095662;28;20095;-72
2021/12/29 00:20:48;;;;;;;4.85;3.00;;;9.90;92.10;;;;;;5094172;28;20043;-72
2021/12/29 00:23:13;;;;;;;3.83;2.83;;;9.80;92.10;;;;;;5094112;28;20024;-71
2021/12/29 00:25:39;;;;;;;4.05;2.95;;;9.80;92.10;;;;;;5094057;28;20024;-71
2021/12/29 00:28:05;;;;;;;4.05;2.85;;;9.80;92.10;;;;;;5095283;28;20024;-71
2021/12/29 00:30:30;;;;;;;3.47;2.67;;;9.90;92.20;;;;;;5094084;28;20483;-71
2021/12/29 00:33:00;;;;;;;4.30;3.00;;;9.80;92.10;;;;;;5095142;28;20035;-72
2021/12/29 00:35:26;;;;;;;7.80;3.38;;;9.80;92.10;;;;;;5093819;28;20161;-71
2021/12/29 00:37:51;;;;;;;4.07;2.90;;;9.80;92.10;;;;;;5095167;28;20020;-70
2021/12/29 00:40:17;;;;;;;5.10;2.55;;;9.80;92.20;;;;;;5095073;28;20024;-71
2021/12/29 00:42:43;;;;;;;3.55;2.35;;;9.80;92.20;;;;;;5093785;28;20008;-71
2021/12/29 00:45:09;;;;;;;3.22;2.70;;;9.80;92.20;;;;;;5094986;28;20028;-71
2021/12/29 00:47:36;;;;;;;3.67;2.50;;;9.80;92.20;;;;;;5093196;28;20020;-71
2021/12/29 00:50:05;;;;;;;4.18;3.00;;;9.80;92.20;;;;;;5093237;28;20073;-72
2021/12/29 00:52:31;;;;;;;4.55;2.83;;;9.80;92.30;;;;;;5099526;28;20035;-71
2021/12/29 00:54:57;;;;;;;4.05;2.78;;;9.80;92.30;;;;;;5114969;28;20058;-71
2021/12/29 00:57:22;;;;;;;5.38;2.72;;;9.80;92.40;;;;;;5096947;28;20069;-71
2021/12/29 00:59:48;;;;;;;5.03;3.03;;;9.80;92.40;;;;;;5096782;28;20073;-71
2021/12/29 01:02:14;;;;;;;5.30;3.22;;;9.80;92.40;;;;;;5096647;28;20011;-71
2021/12/29 01:04:40;;;;;;;5.53;3.00;;;9.80;92.40;;;;;;5114931;28;20028;-71
2021/12/29 01:07:05;;;;;;;7.00;3.88;;;9.80;92.50;;;;;;5096550;28;20027;-72
2021/12/29 01:09:31;;;;;;;9.02;4.80;;;9.80;92.50;;;;;;5114980;28;20019;-72
2021/12/29 01:11:57;;;;;;;5.80;4.10;;;9.80;92.50;;;;;;5096472;28;20118;-71
2021/12/29 01:14:26;;;;;;;6.78;4.00;;;9.80;92.50;;;;;;5096344;28;20031;-71
2021/12/29 01:16:52;;;;;;;5.65;4.10;;;9.80;92.50;;;;;;5096499;28;20031;-71
2021/12/29 01:19:24;;;;;;;8.52;4.10;;;9.80;92.50;;;;;;5096296;28;20490;-71
2021/12/29 01:21:53;;;;;;;7.43;4.47;;;9.80;92.50;;;;;;5096371;28;20031;-71
2021/12/29 01:24:26;;;;;;;7.40;4.60;;;9.80;92.50;;;;;;5096104;28;20032;-71
2021/12/29 01:26:51;;;;;;;7.00;4.20;;;9.80;92.50;;;;;;5114524;28;20020;-71
2021/12/29 01:29:17;;;;;;;7.93;4.18;;;9.80;92.50;;;;;;5114583;28;20028;-71
2021/12/29 01:31:43;;;;;;;6.07;3.90;;;9.80;92.50;;;;;;5096110;28;20012;-71
2021/12/29 01:34:09;;;;;;;7.18;3.97;;;9.80;92.50;;;;;;5096054;28;20110;-71
2021/12/29 01:36:36;;;;;;;7.95;4.50;;;9.80;92.50;;;;;;5096066;28;20020;-71
2021/12/29 01:39:06;;;;;;;9.82;4.90;;;9.80;92.50;;;;;;5114207;28;20016;-71
2021/12/29 01:41:32;;;;;;;11.20;5.95;;;9.80;92.50;;;;;;5095984;28;20068;-71
2021/12/29 01:43:58;;;;;;;9.05;4.85;;;9.80;92.50;;;;;;5114151;28;20421;-71
2021/12/29 01:46:24;;;;;;;9.73;5.20;;;9.80;92.50;;;;;;5114155;28;20020;-71
2021/12/29 01:48:50;;;;;;;9.32;5.28;;;9.80;92.50;;;;;;5095748;28;20084;-70
2021/12/29 01:51:18;;;;;;;10.65;6.00;;;9.80;92.50;;;;;;5095848;28;20043;-71
2021/12/29 01:56:48;;;;;;;11.07;5.38;;;9.80;92.50;;;;;;5031250;28;20172;-71
2021/12/29 01:59:15;;;;;;;9.60;5.40;;;9.80;92.50;;;;;;5014565;28;20061;-71
2021/12/29 02:01:41;;;;;;;8.07;5.30;;;9.80;92.50;;;;;;5063355;28;20032;-72
2021/12/29 02:04:06;;;;;;;8.77;5.18;;;9.80;92.50;;;;;;5095529;28;20031;-71
2021/12/29 02:06:32;;;;;;;8.57;4.80;;;9.80;92.50;;;;;;5113836;28;20020;-71
2021/12/29 02:08:58;;;;;;;10.43;5.50;;;9.80;92.50;;;;;;5113713;28;20095;-71
2021/12/29 02:11:29;;;;;;;11.52;5.20;;;9.80;92.50;;;;;;5095588;28;20216;-71
2021/12/29 02:14:00;;;;;;;8.18;5.47;;;9.80;92.50;;;;;;5113533;28;20103;-71
2021/12/29 02:16:26;;;;;;;9.75;5.25;;;9.80;92.50;;;;;;5095380;28;20020;-71
2021/12/29 02:18:54;;;;;;;8.40;4.80;;;9.80;92.50;;;;;;5113636;28;20485;-71
2021/12/29 02:21:24;;;;;;;10.10;5.00;;;9.80;92.50;;;;;;5095292;28;20475;-71
2021/12/29 02:26:37;;;;;;;10.52;5.80;;;9.80;92.50;;;;;;5113924;28;20114;-71
2021/12/29 02:29:06;;;;;;;10.02;5.35;;;9.80;92.50;;;;;;5113489;28;20016;-71
2021/12/29 02:31:31;;;;;;;9.07;5.05;;;9.80;92.50;;;;;;5095352;28;20455;-72
2021/12/29 02:33:58;;;;;;;11.93;6.28;;;9.80;92.40;;;;;;5113580;28;20023;-72
2021/12/29 02:36:25;;;;;;;12.13;5.80;;;9.80;92.40;;;;;;5113385;28;20062;-71
2021/12/29 02:38:54;;;;;;;11.80;5.70;;;9.80;92.40;;;;;;5095300;28;20016;-72
2021/12/29 02:41:23;;;;;;;8.75;5.50;;;9.80;92.40;;;;;;5095140;28;20467;-71
2021/12/29 02:43:57;;;;;;;9.68;5.22;;;9.80;92.40;;;;;;5095089;28;20012;-71
2021/12/29 02:46:22;;;;;;;9.50;5.68;;;9.80;92.40;;;;;;5095129;28;20034;-71
2021/12/29 02:48:58;;;;;;;8.70;5.20;;;9.80;92.40;;;;;;5113289;28;20020;-71
2021/12/29 02:51:23;;;;;;;9.63;5.32;;;9.80;92.40;;;;;;5095087;28;20023;-72
2021/12/29 02:53:49;;;;;;;8.48;5.20;;;9.80;92.40;;;;;;5113066;28;20044;-72
2021/12/29 02:56:15;;;;;;;8.70;4.82;;;9.80;92.30;;;;;;5113146;28;20052;-72
2021/12/29 02:58:41;;;;;;;10.48;5.00;;;9.80;92.30;;;;;;5095064;28;20471;-72
2021/12/29 03:01:10;;;;;;;8.68;4.88;;;9.80;92.30;;;;;;5113207;28;20027;-71
2021/12/29 03:03:39;;;;;;;7.90;4.75;;;9.80;92.30;;;;;;5095011;28;20031;-71
2021/12/29 03:06:06;;;;;;;7.07;4.38;;;9.80;92.30;;;;;;5094896;28;20239;-71
2021/12/29 03:08:32;;;;;;;7.43;4.68;;;9.80;92.30;;;;;;5094979;28;20479;-71
2021/12/29 03:10:57;;;;;;;7.78;4.70;;;9.80;92.30;;;;;;5113189;28;20020;-71
2021/12/29 03:13:26;;;;;;;7.82;4.82;;;9.80;92.30;;;;;;5116987;28;20031;-72
2021/12/29 03:15:52;;;;;;;7.60;4.65;;;9.80;92.50;;;;;;5117199;28;20020;-71
2021/12/29 03:18:18;;;;;;;11.52;5.18;;;9.80;92.30;;;;;;5117315;28;20038;-71
2021/12/29 03:20:46;;;;;;;9.88;4.93;;;9.80;92.20;;;;;;5117062;28;20012;-71
2021/12/29 03:23:13;;;;;;;6.75;4.95;;;9.80;92.20;;;;;;5098672;28;20433;-72
2021/12/29 03:25:39;;;;;;;9.25;4.68;;;9.80;92.20;;;;;;5098738;28;20452;-72
2021/12/29 03:28:05;;;;;;;10.00;5.10;;;9.80;92.20;;;;;;5098599;28;20024;-72
2021/12/29 03:30:35;;;;;;;7.97;5.57;;;9.90;92.20;;;;;;5098614;28;20517;-71
2021/12/29 03:33:05;;;;;;;7.78;4.65;;;9.90;92.20;;;;;;5098461;28;20410;-77
2021/12/29 03:35:38;;;;;;;6.65;4.68;;;9.90;92.20;;;;;;5116721;28;20103;-77
2021/12/29 03:38:06;;;;;;;9.15;4.53;;;9.80;92.20;;;;;;5098374;28;20076;-71
2021/12/29 03:40:35;;;;;;;8.27;4.38;;;9.80;92.20;;;;;;5098418;28;20015;-71
2021/12/29 03:43:01;;;;;;;8.20;4.68;;;9.90;92.20;;;;;;5116624;28;20107;-71
2021/12/29 03:45:27;;;;;;;9.15;4.50;;;9.90;92.20;;;;;;5098335;28;20031;-71
2021/12/29 03:47:52;;;;;;;9.68;4.28;;;9.90;92.20;;;;;;5116461;28;20023;-71
2021/12/29 03:50:18;;;;;;;9.60;4.25;;;9.90;92.20;;;;;;5098205;28;20024;-71
2021/12/29 03:52:44;;;;;;;7.50;4.30;;;9.90;92.20;;;;;;5116258;28;20066;-71
2021/12/29 03:55:10;;;;;;;11.25;4.03;;;9.90;92.20;;;;;;5098074;28;20027;-71
2021/12/29 03:57:35;;;;;;;9.60;4.20;;;9.90;92.20;;;;;;5098021;28;20031;-71
2021/12/29 04:00:04;;;;;;;10.27;3.80;;;9.90;92.20;;;;;;5098070;28;20475;-71
2021/12/29 04:02:30;;;;;;;9.65;3.30;;;9.90;92.20;;;;;;5097911;28;20502;-71
2021/12/29 04:04:55;;;;;;;8.40;3.70;;;9.80;92.20;;;;;;5097908;28;20031;-71
2021/12/29 04:07:21;;;;;;;8.73;4.07;;;9.80;92.20;;;;;;5116430;28;20019;-71
2021/12/29 04:09:46;;;;;;;10.35;3.90;;;9.80;92.20;;;;;;5097823;28;20020;-71
2021/12/29 04:12:12;;;;;;;8.57;3.60;;;9.90;92.20;;;;;;5097742;28;20027;-71
2021/12/29 04:14:38;;;;;;;9.55;3.50;;;9.80;92.20;;;;;;5115771;28;20122;-71
2021/12/29 04:17:09;;;;;;;9.50;3.50;;;9.80;92.20;;;;;;5115973;28;20379;-71
2021/12/29 04:19:40;;;;;;;10.60;4.20;;;9.90;92.30;;;;;;5097687;28;20023;-71
2021/12/29 04:22:07;;;;;;;7.82;3.95;;;9.80;92.20;;;;;;5115895;28;20039;-72
2021/12/29 04:24:36;;;;;;;8.93;3.58;;;9.80;92.30;;;;;;5097488;28;20031;-71
2021/12/29 04:27:05;;;;;;;11.25;3.95;;;9.80;92.30;;;;;;5097504;28;20015;-72
2021/12/29 04:29:31;;;;;;;10.07;4.20;;;9.80;92.30;;;;;;5097372;28;20027;-72
2021/12/29 04:31:57;;;;;;;8.50;4.15;;;9.80;92.30;;;;;;5115695;28;20023;-72
2021/12/29 04:34:22;;;;;;;11.27;3.92;;;9.80;92.30;;;;;;5115571;28;20387;-72
2021/12/29 04:36:48;;;;;;;8.85;3.90;;;9.80;92.30;;;;;;5097334;28;20110;-72
2021/12/29 04:39:14;;;;;;;9.07;3.80;;;9.90;92.30;;;;;;5115740;28;20030;-72
2021/12/29 04:41:39;;;;;;;9.77;3.55;;;9.90;92.30;;;;;;5115423;28;20361;-71
2021/12/29 04:44:05;;;;;;;7.22;3.47;;;9.80;92.30;;;;;;5097310;28;20028;-71
2021/12/29 04:46:39;;;;;;;11.07;4.25;;;9.80;92.20;;;;;;5115615;28;20012;-71
2021/12/29 04:49:08;;;;;;;9.73;3.85;;;9.80;92.20;;;;;;5115540;28;20026;-71
2021/12/29 04:51:36;;;;;;;9.05;3.92;;;9.80;92.20;;;;;;5097080;28;20012;-71
2021/12/29 04:54:07;;;;;;;8.18;3.60;;;9.80;92.20;;;;;;5115125;28;20044;-72
2021/12/29 04:56:33;;;;;;;7.85;4.00;;;9.80;92.20;;;;;;5096872;28;20024;-71
2021/12/29 04:58:59;;;;;;;9.93;4.07;;;9.80;92.20;;;;;;5096876;28;20405;-71
2021/12/29 05:01:25;;;;;;;8.23;3.40;;;9.80;92.20;;;;;;5115125;28;20016;-72
2021/12/29 05:03:50;;;;;;;6.95;3.53;;;9.80;92.20;;;;;;5115129;28;20492;-71
2021/12/29 05:09:00;;;;;;;6.13;3.30;;;9.90;92.20;;;;;;5115143;28;20483;-72
2021/12/29 05:11:26;;;;;;;7.55;3.20;;;9.90;92.20;;;;;;5114980;28;20035;-72
2021/12/29 05:13:51;;;;;;;5.75;2.92;;;9.90;92.20;;;;;;5096513;28;20107;-71
2021/12/29 05:16:17;;;;;;;8.55;3.10;;;9.90;92.20;;;;;;5114626;28;20411;-72
2021/12/29 05:18:44;;;;;;;7.32;3.30;;;9.90;92.10;;;;;;5096599;28;20019;-72
2021/12/29 05:21:09;;;;;;;7.95;3.40;;;9.90;92.10;;;;;;5114732;28;20044;-71
2021/12/29 05:23:36;;;;;;;5.05;2.83;;;9.90;92.10;;;;;;5114677;28;20058;-72
2021/12/29 05:26:02;;;;;;;7.53;3.10;;;10.00;92.10;;;;;;5114572;28;20016;-72
2021/12/29 05:28:28;;;;;;;7.38;2.90;;;9.90;92.10;;;;;;5114626;28;20564;-72
2021/12/29 05:30:54;;;;;;;7.45;3.05;;;9.90;92.10;;;;;;5114571;28;20044;-72
2021/12/29 05:33:20;;;;;;;7.00;3.47;;;9.90;92.10;;;;;;5096207;28;20020;-72
2021/12/29 05:35:46;;;;;;;7.10;3.58;;;10.00;92.10;;;;;;5095615;28;20030;-78
2021/12/29 05:38:11;;;;;;;4.65;3.25;;;9.90;92.10;;;;;;5114320;28;20019;-76
2021/12/29 05:40:37;;;;;;;7.03;3.30;;;10.00;92.10;;;;;;5096250;28;20050;-77
2021/12/29 05:43:03;;;;;;;5.00;3.58;;;9.90;92.10;;;;;;5114303;28;20051;-77
2021/12/29 05:45:30;;;;;;;7.93;3.45;;;9.90;92.10;;;;;;5096147;28;20020;-77
2021/12/29 05:47:56;;;;;;;7.30;3.53;;;9.90;92.10;;;;;;5114331;28;20028;-77
2021/12/29 05:50:26;;;;;;;5.63;4.18;;;9.90;92.10;;;;;;5096148;28;20031;-77
2021/12/29 05:52:53;;;;;;;5.65;4.28;;;9.90;92.00;;;;;;5114109;28;20054;-76
2021/12/29 05:55:19;;;;;;;6.07;4.13;;;9.90;92.00;;;;;;5095910;28;20024;-77
2021/12/29 05:57:45;;;;;;;7.25;4.68;;;9.90;92.10;;;;;;5095968;28;20442;-77
2021/12/29 06:00:15;;;;;;;6.10;4.45;;;9.90;92.10;;;;;;5095750;28;20012;-77
2021/12/29 06:02:41;;;;;;;5.78;4.50;;;9.80;92.10;;;;;;5095655;28;20065;-78
2021/12/29 06:05:07;;;;;;;6.53;4.90;;;9.80;92.10;;;;;;5114000;28;20023;-76
2021/12/29 06:07:34;;;;;;;6.25;4.68;;;9.80;92.10;;;;;;5095670;28;20027;-78
2021/12/29 06:10:00;;;;;;;8.60;5.00;;;9.80;92.10;;;;;;5113894;28;20023;-76
2021/12/29 06:12:26;;;;;;;6.47;4.60;;;9.80;92.10;;;;;;5095622;28;20027;-78
2021/12/29 06:14:52;;;;;;;7.22;4.72;;;9.80;92.20;;;;;;5095490;28;20023;-78
2021/12/29 06:17:18;;;;;;;5.85;4.70;;;9.80;92.20;;;;;;5095783;28;20023;-77
2021/12/29 06:19:44;;;;;;;5.47;4.40;;;9.80;92.20;;;;;;5095504;28;20019;-77
2021/12/29 06:22:10;;;;;;;5.95;3.88;;;9.80;92.20;;;;;;5095711;28;20026;-76
2021/12/29 06:24:38;;;;;;;6.18;4.30;;;9.80;92.20;;;;;;5113787;28;20023;-77
2021/12/29 06:27:04;;;;;;;6.93;4.60;;;9.80;92.20;;;;;;5113700;28;20475;-77
2021/12/29 06:29:29;;;;;;;6.40;4.50;;;9.80;92.20;;;;;;5095443;28;20064;-77
2021/12/29 06:31:55;;;;;;;5.30;4.00;;;9.80;92.20;;;;;;5113972;28;20383;-76
2021/12/29 06:34:21;;;;;;;5.22;4.18;;;9.80;92.20;;;;;;5095352;28;20024;-76
2021/12/29 06:36:46;;;;;;;6.22;3.90;;;9.80;92.20;;;;;;5095483;28;20500;-77
2021/12/29 06:39:12;;;;;;;4.82;3.60;;;9.80;92.20;;;;;;5113567;28;20077;-76
2021/12/29 06:41:38;;;;;;;5.82;3.20;;;9.80;92.20;;;;;;5095917;28;20020;-77
2021/12/29 06:44:04;;;;;;;4.70;3.67;;;9.80;92.20;;;;;;5095471;28;20454;-77
2021/12/29 06:46:30;;;;;;;5.47;3.83;;;9.80;92.20;;;;;;5114588;28;20030;-76
2021/12/29 06:48:55;;;;;;;4.38;3.65;;;9.80;92.20;;;;;;5117781;28;20110;-76
2021/12/29 06:51:21;;;;;;;4.18;3.47;;;9.80;92.20;;;;;;5099785;28;20020;-77
2021/12/29 06:53:47;;;;;;;3.95;3.45;;;9.80;92.20;;;;;;5117548;28;20048;-78
2021/12/29 06:56:12;;;;;;;4.57;3.20;;;9.80;92.20;;;;;;5099281;28;20043;-77
2021/12/29 06:58:38;;;;;;;4.93;2.92;;;9.80;92.20;;;;;;5099493;28;20046;-77
2021/12/29 07:01:05;;;;;;;3.55;2.83;;;9.90;92.20;;;;;;5099517;28;20065;-72
2021/12/29 07:03:31;;;;;;;4.60;2.90;;;9.80;92.20;;;;;;5117466;28;20016;-72
2021/12/29 07:05:57;;;;;;;3.35;2.67;;;9.90;92.20;;;;;;5098966;28;20028;-72
2021/12/29 07:08:23;;;;;;;3.17;2.30;;;9.90;92.20;;;;;;5099049;28;20020;-72
2021/12/29 07:10:49;;;;;;;3.47;2.20;;;9.80;92.20;;;;;;5099012;28;20020;-72
2021/12/29 07:13:15;;;;;;;2.90;2.40;;;9.90;92.20;;;;;;5098836;28;20146;-71
2021/12/29 07:15:40;;;;;;;2.67;2.40;;;9.80;92.20;;;;;;5117292;28;20387;-72
2021/12/29 07:18:06;;;;;;;5.43;3.20;;;9.80;92.20;;;;;;5117130;28;20024;-72
2021/12/29 07:20:32;;;;;;;3.95;2.80;;;9.90;92.20;;;;;;5098967;28;20081;-72
2021/12/29 07:22:57;;;;;;;3.47;2.70;;;9.90;92.20;;;;;;5098649;28;20052;-72
2021/12/29 07:25:24;;;;;;;5.97;3.10;;;9.90;92.20;;;;;;5098810;28;20411;-71
2021/12/29 07:27:54;;;;;;;6.13;3.35;;;9.90;92.20;;;;;;5098579;28;20502;-72
2021/12/29 07:30:20;;;;;;;5.30;3.20;;;9.90;92.20;;;;;;5098453;28;20102;-72
2021/12/29 07:32:46;;;;;;;4.93;3.33;;;9.90;92.20;;;;;;5098912;28;20024;-72
2021/12/29 07:35:11;;;;;;;4.70;3.90;;;9.90;92.20;;;;;;5116635;28;20107;-72
2021/12/29 07:37:37;;;;;;;8.05;3.80;;;9.90;92.20;;;;;;5098416;28;20020;-72
2021/12/29 07:40:07;;;;;;;9.32;4.15;;;9.90;92.20;;;;;;5116607;28;20019;-71
2021/12/29 07:42:33;;;;;;;10.00;4.60;;;9.90;92.20;;;;;;5098302;28;20479;-71
2021/12/29 07:44:59;;;;;;;10.55;4.70;;;9.90;92.10;;;;;;5116598;28;20031;-72
2021/12/29 07:47:25;;;;;;;7.15;4.70;;;9.90;92.10;;;;;;5098325;28;20023;-71
2021/12/29 07:49:50;;;;;;;11.70;5.25;;;9.90;92.10;;;;;;5116659;28;20023;-72
2021/12/29 07:52:16;;;;;;;9.35;4.60;;;9.90;92.10;;;;;;5116274;28;20505;-72
2021/12/29 07:54:42;;;;;;;9.77;4.15;;;9.90;92.10;;;;;;5116246;28;20035;-71
2021/12/29 07:57:08;;;;;;;7.75;4.20;;;9.90;92.10;;;;;;5097481;28;20020;-72
2021/12/29 07:59:34;;;;;;;10.38;5.07;;;9.90;92.10;;;;;;5097957;28;20107;-72
2021/12/29 08:02:00;;;;;;;8.13;4.68;;;9.90;92.10;;;;;;5097853;28;20102;-72
2021/12/29 08:04:26;;;;;;;7.65;4.82;;;9.90;92.10;;;;;;5097908;28;20482;-71
2021/12/29 08:06:52;;;;;;;11.98;5.72;;;9.90;92.10;;;;;;5097840;28;20058;-71
2021/12/29 08:09:17;;;;;;;8.32;4.95;;;9.90;92.10;;;;;;5115983;28;20475;-72
2021/12/29 08:11:43;;;;;;;8.07;5.13;;;9.80;92.10;;;;;;5098044;28;20020;-72
2021/12/29 08:14:09;;;;;;;9.90;5.50;;;9.90;92.10;;;;;;5097371;28;20019;-73
2021/12/29 08:16:35;;;;;;;8.65;5.57;;;9.80;92.00;;;;;;5097516;28;20020;-73
2021/12/29 08:19:01;;;;;;;9.98;5.55;;;9.80;92.00;;;;;;5097519;28;20243;-72
2021/12/29 08:21:27;;;;;;;11.02;6.05;;;9.80;92.00;;;;;;5097411;28;20023;-72
2021/12/29 08:23:52;;;;;;;10.00;5.70;;;9.80;92.00;;;;;;5115643;28;20087;-72
2021/12/29 08:26:20;;;;;;;12.90;6.25;;;9.80;92.00;;;;;;5115587;28;20031;-72
2021/12/29 08:28:46;;;;;;;11.90;6.10;;;9.80;92.30;;;;;;5115570;28;20023;-72
2021/12/29 08:31:12;;;;;;;11.52;6.32;;;9.80;92.00;;;;;;5115629;28;20027;-72
2021/12/29 08:33:38;;;;;;;9.13;6.57;;;9.80;92.00;;;;;;5097214;28;20016;-72
2021/12/29 08:36:06;;;;;;;14.27;6.47;;;9.80;92.00;;;;;;5097191;28;20176;-72
2021/12/29 08:38:32;;;;;;;12.43;6.55;;;9.80;92.00;;;;;;5097165;28;20016;-72
2021/12/29 08:40:58;;;;;;;10.30;6.15;;;9.80;92.00;;;;;;5115356;28;20020;-73
2021/12/29 08:43:24;;;;;;;10.68;5.93;;;9.70;92.00;;;;;;5115260;28;20053;-72
2021/12/29 08:45:50;;;;;;;9.80;5.93;;;9.80;92.00;;;;;;5115041;28;20035;-72
2021/12/29 08:48:15;;;;;;;12.55;6.70;;;9.80;92.00;;;;;;5115368;28;20020;-72
2021/12/29 08:50:41;;;;;;;8.98;6.25;;;9.80;92.00;;;;;;5096869;28;20429;-71
2021/12/29 08:53:08;;;;;;;10.43;6.60;;;9.80;92.00;;;;;;5114829;28;20079;-72
2021/12/29 08:55:36;;;;;;;10.20;6.30;;;9.80;92.00;;;;;;5096609;28;20110;-72
2021/12/29 08:58:02;;;;;;;12.48;6.25;;;9.80;91.90;;;;;;5096738;28;20054;-72
2021/12/29 09:00:28;;;;;;;9.73;6.40;;;9.80;91.90;;;;;;5096727;28;20506;-72
2021/12/29 09:02:54;;;;;;;12.05;6.05;;;9.80;91.90;;;;;;5114933;28;20020;-72
2021/12/29 09:05:19;;;;;;;10.98;6.82;;;9.80;91.90;;;;;;5096529;28;20072;-72
2021/12/29 09:07:46;;;;;;;13.25;6.88;;;9.80;91.90;;;;;;5096628;28;20122;-72
2021/12/29 09:10:18;;;;;;;9.80;6.05;;;9.80;91.90;;;;;;5095502;28;20505;-72
2021/12/29 09:12:47;;;;;;;13.93;6.47;;;9.80;91.90;;;;;;5114731;28;20051;-72
2021/12/29 09:15:14;;;;;;;10.27;6.00;;;9.80;91.90;;;;;;5096511;28;20068;-72
2021/12/29 09:17:40;;;;;;;13.02;6.55;;;9.80;91.90;;;;;;5096435;28;20089;-72
2021/12/29 09:20:13;;;;;;;12.63;6.00;;;9.90;92.00;;;;;;5096343;28;20024;-72
2021/12/29 09:22:39;;;;;;;11.02;6.70;;;9.90;91.90;;;;;;5096387;28;20012;-72
2021/12/29 09:25:05;;;;;;;10.68;6.55;;;9.80;91.90;;;;;;5114468;28;20039;-72
2021/12/29 09:27:31;;;;;;;11.95;6.63;;;9.90;91.90;;;;;;5096210;28;20027;-72
2021/12/29 09:29:57;;;;;;;11.65;6.68;;;9.90;91.90;;;;;;5096146;28;20490;-72
2021/12/29 09:32:23;;;;;;;11.07;7.68;;;9.90;91.90;;;;;;5114417;28;20428;-71
2021/12/29 09:34:49;;;;;;;8.38;6.28;;;9.90;91.90;;;;;;5095985;28;20020;-72
2021/12/29 09:37:15;;;;;;;9.10;6.63;;;10.00;91.90;;;;;;5114224;28;20077;-72
2021/12/29 09:39:41;;;;;;;11.43;7.00;;;10.00;91.90;;;;;;5096142;28;20035;-72
2021/12/29 09:42:07;;;;;;;11.82;7.00;;;10.00;91.80;;;;;;5095983;28;20052;-71
2021/12/29 09:44:33;;;;;;;10.13;6.70;;;10.00;91.80;;;;;;5114256;28;20051;-72
2021/12/29 09:46:59;;;;;;;12.88;6.88;;;10.00;91.80;;;;;;5095849;28;20502;-72
2021/12/29 09:49:24;;;;;;;11.77;7.10;;;10.00;91.80;;;;;;5114019;28;20031;-72
2021/12/29 09:51:51;;;;;;;10.48;6.70;;;10.00;91.80;;;;;;5114424;28;20028;-72
2021/12/29 09:54:17;;;;;;;10.38;6.97;;;10.10;91.80;;;;;;5095570;28;20067;-72
2021/12/29 09:56:43;;;;;;;10.55;6.78;;;10.10;91.80;;;;;;5095701;28;20073;-73
2021/12/29 09:59:08;;;;;;;8.85;6.88;;;10.10;91.80;;;;;;5095470;28;20023;-72
2021/12/29 10:01:35;;;;;;;15.48;6.68;;;10.20;91.80;;;;;;5095942;28;20043;-72
2021/12/29 10:04:00;;;;;;;10.90;6.13;;;10.10;91.70;;;;;;5095544;28;20126;-71
2021/12/29 10:06:26;;;;;;;11.95;7.10;;;10.10;91.70;;;;;;5095551;28;20030;-71
2021/12/29 10:08:53;;;;;;;8.55;6.78;;;10.20;91.70;;;;;;5095387;28;20031;-72
2021/12/29 10:11:27;;;;;;;11.13;6.97;;;10.20;91.70;;;;;;5095496;28;20069;-71
2021/12/29 10:13:53;;;;;;;11.95;8.18;;;10.20;91.70;;;;;;5113555;28;20024;-71
2021/12/29 10:16:25;;;;;;;12.02;7.40;;;10.20;91.70;;;;;;5095054;28;20375;-72
2021/12/29 10:19:06;;;;;;;10.18;6.60;;;10.20;91.70;;;;;;5095216;28;20050;-71
2021/12/29 10:21:32;;;;;;;10.60;6.65;;;10.20;91.70;;;;;;5095481;28;20020;-72
2021/12/29 10:23:59;;;;;;;9.45;6.40;;;10.20;91.70;;;;;;5095351;28;20024;-72
2021/12/29 10:26:31;;;;;;;8.88;6.18;;;10.30;91.70;;;;;;5095108;28;20012;-71
2021/12/29 10:32:23;;;;;;;9.05;6.45;;;10.30;91.60;;;;;;5113685;28;20050;-72
2021/12/29 10:34:53;;;;;;;9.95;6.53;;;10.30;91.60;;;;;;5095223;28;20019;-72
2021/12/29 10:37:23;;;;;;;11.45;6.75;;;10.40;91.60;;;;;;5095052;28;20019;-72
2021/12/29 10:39:51;;;;;;;7.85;5.85;;;10.40;91.60;;;;;;5113527;28;20020;-72
2021/12/29 10:42:23;;;;;;;12.65;6.85;;;10.40;91.60;;;;;;5095186;28;20038;-72
2021/12/29 10:44:51;;;;;;;7.82;5.85;;;10.40;91.60;;;;;;5094887;28;20499;-72
2021/12/29 10:47:27;;;;;;;8.88;6.00;;;10.40;91.60;;;;;;5095092;28;20094;-71
2021/12/29 10:49:55;;;;;;;9.25;6.85;;;10.50;91.60;;;;;;5113279;28;20047;-72
2021/12/29 10:52:51;;;;;;;11.10;6.30;;;10.50;91.50;;;;;;5113179;28;20046;-72
2021/12/29 10:55:18;;;;;;;12.68;6.22;;;10.50;91.50;;;;;;5091892;28;20134;-72
2021/12/29 10:57:46;;;;;;;7.75;6.15;;;10.60;91.50;;;;;;5095141;28;20153;-73
2021/12/29 11:00:18;;;;;;;8.50;5.82;;;10.60;91.50;;;;;;5094810;28;20172;-72
2021/12/29 11:02:46;;;;;;;8.13;5.80;;;10.70;91.40;;;;;;5095178;28;20353;-73
2021/12/29 11:05:12;;;;;;;8.32;5.88;;;10.70;91.40;;;;;;5094981;28;20514;-72
2021/12/29 11:07:40;;;;;;;7.78;6.20;;;10.70;91.40;;;;;;5113252;28;20108;-72
2021/12/29 11:10:13;;;;;;;8.77;6.45;;;10.70;91.40;;;;;;5113381;28;20042;-72
2021/12/29 11:12:50;;;;;;;9.63;6.18;;;10.70;91.30;;;;;;5112985;28;20028;-72
2021/12/29 11:15:23;;;;;;;7.07;6.00;;;10.70;91.30;;;;;;5112946;28;20482;-72
2021/12/29 11:17:50;;;;;;;8.07;5.47;;;10.70;91.30;;;;;;5094816;28;20066;-72
2021/12/29 11:20:25;;;;;;;8.23;5.18;;;10.70;91.50;;;;;;5113056;28;20054;-72
2021/12/29 11:22:51;;;;;;;9.18;6.10;;;10.80;91.30;;;;;;5094774;28;20030;-73
2021/12/29 11:25:28;;;;;;;8.57;5.80;;;10.80;91.20;;;;;;5094679;28;20028;-73
2021/12/29 11:27:54;;;;;;;7.20;5.45;;;10.80;91.20;;;;;;5113041;28;20470;-72
2021/12/29 11:30:20;;;;;;;7.53;5.30;;;10.90;91.20;;;;;;5094570;28;20047;-73
2021/12/29 11:32:47;;;;;;;8.43;4.93;;;10.80;91.10;;;;;;5114293;28;20028;-73
2021/12/29 11:35:14;;;;;;;8.70;5.57;;;10.80;91.10;;;;;;5098396;28;20496;-72
2021/12/29 11:37:49;;;;;;;7.22;4.97;;;10.80;91.10;;;;;;5098360;28;20023;-73
2021/12/29 11:40:18;;;;;;;6.15;5.47;;;10.80;91.10;;;;;;5098452;28;20151;-73
2021/12/29 11:42:44;;;;;;;7.07;5.70;;;10.80;91.10;;;;;;5098244;28;20480;-72
2021/12/29 11:45:13;;;;;;;9.07;5.78;;;10.80;91.10;;;;;;5116524;28;20028;-72
2021/12/29 11:47:39;;;;;;;7.35;5.30;;;10.70;91.00;;;;;;5098180;28;20118;-73
2021/12/29 11:50:06;;;;;;;6.78;5.70;;;10.70;91.10;;;;;;5116717;28;20023;-72
2021/12/29 11:52:53;;;;;;;7.70;5.63;;;10.80;91.10;;;;;;5116238;28;20498;-73
2021/12/29 11:55:24;;;;;;;6.65;5.95;;;10.70;91.00;;;;;;5098192;28;20047;-73
2021/12/29 11:57:50;;;;;;;7.50;6.00;;;10.70;91.00;;;;;;5098142;28;20396;-72
2021/12/29 12:00:23;;;;;;;6.97;5.82;;;10.70;91.00;;;;;;5097984;28;20036;-73
2021/12/29 12:02:51;;;;;;;8.10;6.13;;;10.70;91.10;;;;;;5116276;28;20023;-72
2021/12/29 12:05:24;;;;;;;6.18;5.57;;;10.70;91.00;;;;;;5116389;28;20288;-72
2021/12/29 12:07:50;;;;;;;8.52;6.03;;;10.60;91.00;;;;;;5098346;28;20032;-72
2021/12/29 12:10:33;;;;;;;7.82;5.95;;;10.60;91.00;;;;;;5097863;28;20033;-72
2021/12/29 12:12:58;;;;;;;10.43;6.28;;;10.60;91.00;;;;;;5097715;28;20034;-72
2021/12/29 12:15:31;;;;;;;7.43;6.07;;;10.60;91.00;;;;;;5113203;28;20027;-72
2021/12/29 12:18:06;;;;;;;6.95;6.00;;;10.60;91.00;;;;;;5116177;28;20069;-73
2021/12/29 12:20:40;;;;;;;9.32;5.95;;;10.60;91.00;;;;;;5116029;28;20084;-72
2021/12/29 12:23:07;;;;;;;7.03;5.93;;;10.60;91.00;;;;;;5115939;28;20042;-72
2021/12/29 12:25:34;;;;;;;9.05;5.88;;;10.70;91.00;;;;;;5097616;28;20073;-72
2021/12/29 12:28:03;;;;;;;9.25;5.60;;;10.60;91.00;;;;;;5097543;28;20084;-72
2021/12/29 12:30:40;;;;;;;8.23;6.38;;;10.70;91.00;;;;;;5097397;28;20028;-72
2021/12/29 12:33:26;;;;;;;9.80;6.00;;;10.60;90.90;;;;;;5097436;28;20028;-72
2021/12/29 12:35:53;;;;;;;8.70;6.03;;;10.70;90.90;;;;;;5097378;28;20051;-72
2021/12/29 12:38:22;;;;;;;8.98;6.40;;;10.70;90.90;;;;;;5097226;28;20023;-72
2021/12/29 12:41:14;;;;;;;6.43;5.65;;;10.70;90.90;;;;;;5097102;28;20035;-72
2021/12/29 12:43:57;;;;;;;7.05;5.45;;;10.70;90.90;;;;;;5087051;28;20511;-72
2021/12/29 12:46:49;;;;;;;8.43;6.20;;;10.70;90.90;;;;;;5096969;28;20028;-72
2021/12/29 12:49:15;;;;;;;5.03;4.53;;;10.70;90.90;;;;;;5096831;28;20425;-72
2021/12/29 12:51:41;;;;;;;8.65;5.82;;;10.70;90.80;;;;;;5097046;28;20062;-72
2021/12/29 12:54:21;;;;;;;8.05;5.47;;;10.70;90.80;;;;;;5096824;28;20443;-72
2021/12/29 12:56:48;;;;;;;6.93;5.80;;;10.60;90.70;;;;;;5096976;28;20066;-72
2021/12/29 12:59:15;;;;;;;8.68;5.68;;;10.70;90.80;;;;;;5115206;28;20483;-72
2021/12/29 13:01:50;;;;;;;8.80;5.78;;;10.60;90.80;;;;;;5096676;28;20055;-72
2021/12/29 13:04:17;;;;;;;8.48;5.25;;;10.70;90.80;;;;;;5096923;28;20027;-72
2021/12/29 13:06:49;;;;;;;5.57;4.93;;;10.70;90.80;;;;;;5115058;28;20113;-72